sensor_id;sensor_type;location;lat;lon;timestamp;P1;durP1;ratioP1;P2;durP2;ratioP2
76176;SDS011;64938;47.696;8.066;2023-06-22T00:00:49;11.20;;;5.93;;
76176;SDS011;64938;47.696;8.066;2023-06-22T00:03:14;14.40;;;6.83;;
76176;SDS011;64938;47.696;8.066;2023-06-22T00:05:40;6.80;;;5.67;;
76176;SDS011;64938;47.696;8.066;2023-06-22T00:08:05;8.40;;;5.70;;
76176;SDS011;64938;47.696;8.066;2023-06-22T00:10:31;10.20;;;6.60;;
76176;SDS011;64938;47.696;8.066;2023-06-22T00:12:58;9.70;;;6.00;;
76176;SDS011;64938;47.696;8.066;2023-06-22T00:15:24;11.07;;;6.60;;
76176;SDS011;64938;47.696;8.066;2023-06-22T00:17:50;9.50;;;5.57;;
76176;SDS011;64938;47.696;8.066;2023-06-22T00:20:16;11.80;;;5.00;;
76176;SDS011;64938;47.696;8.066;2023-06-22T00:22:43;9.73;;;5.60;;
76176;SDS011;64938;47.696;8.066;2023-06-22T00:25:09;8.40;;;4.80;;
76176;SDS011;64938;47.696;8.066;2023-06-22T00:27:36;9.60;;;5.70;;
76176;SDS011;64938;47.696;8.066;2023-06-22T00:30:02;11.77;;;5.60;;
76176;SDS011;64938;47.696;8.066;2023-06-22T00:32:29;12.20;;;6.10;;
76176;SDS011;64938;47.696;8.066;2023-06-22T00:34:55;8.10;;;5.53;;
76176;SDS011;64938;47.696;8.066;2023-06-22T00:37:20;10.37;;;5.97;;
76176;SDS011;64938;47.696;8.066;2023-06-22T00:39:53;13.77;;;5.63;;
76176;SDS011;64938;47.696;8.066;2023-06-22T00:42:18;9.10;;;5.40;;
76176;SDS011;64938;47.696;8.066;2023-06-22T00:44:44;15.27;;;6.17;;
76176;SDS011;64938;47.696;8.066;2023-06-22T00:47:10;9.60;;;6.00;;
76176;SDS011;64938;47.696;8.066;2023-06-22T00:49:38;11.60;;;6.10;;
76176;SDS011;64938;47.696;8.066;2023-06-22T00:52:04;10.03;;;5.80;;
76176;SDS011;64938;47.696;8.066;2023-06-22T00:54:34;9.10;;;5.73;;
76176;SDS011;64938;47.696;8.066;2023-06-22T00:57:01;11.40;;;5.83;;
76176;SDS011;64938;47.696;8.066;2023-06-22T00:59:26;8.47;;;5.50;;
76176;SDS011;64938;47.696;8.066;2023-06-22T01:01:53;9.20;;;5.80;;
76176;SDS011;64938;47.696;8.066;2023-06-22T01:04:19;11.47;;;5.73;;
76176;SDS011;64938;47.696;8.066;2023-06-22T01:07:10;15.03;;;6.13;;
76176;SDS011;64938;47.696;8.066;2023-06-22T01:10:25;8.10;;;6.00;;
76176;SDS011;64938;47.696;8.066;2023-06-22T01:12:25;12.10;;;5.80;;
76176;SDS011;64938;47.696;8.066;2023-06-22T01:14:55;11.33;;;6.30;;
76176;SDS011;64938;47.696;8.066;2023-06-22T01:17:24;11.07;;;5.20;;
76176;SDS011;64938;47.696;8.066;2023-06-22T01:19:50;10.90;;;5.40;;
76176;SDS011;64938;47.696;8.066;2023-06-22T01:22:22;8.23;;;5.90;;
76176;SDS011;64938;47.696;8.066;2023-06-22T01:24:53;8.07;;;5.50;;
76176;SDS011;64938;47.696;8.066;2023-06-22T01:30:27;9.90;;;6.37;;
76176;SDS011;64938;47.696;8.066;2023-06-22T01:32:54;10.30;;;5.57;;
76176;SDS011;64938;47.696;8.066;2023-06-22T01:35:23;9.50;;;5.37;;
76176;SDS011;64938;47.696;8.066;2023-06-22T01:37:49;9.67;;;5.43;;
76176;SDS011;64938;47.696;8.066;2023-06-22T01:40:15;8.30;;;4.83;;
76176;SDS011;64938;47.696;8.066;2023-06-22T01:42:41;7.10;;;5.50;;
76176;SDS011;64938;47.696;8.066;2023-06-22T01:45:08;10.67;;;5.77;;
76176;SDS011;64938;47.696;8.066;2023-06-22T01:47:36;11.27;;;6.07;;
76176;SDS011;64938;47.696;8.066;2023-06-22T01:50:05;8.50;;;5.63;;
76176;SDS011;64938;47.696;8.066;2023-06-22T01:52:31;10.83;;;5.67;;
76176;SDS011;64938;47.696;8.066;2023-06-22T01:54:59;11.10;;;5.90;;
76176;SDS011;64938;47.696;8.066;2023-06-22T01:57:25;10.23;;;5.77;;
76176;SDS011;64938;47.696;8.066;2023-06-22T02:00:04;5.87;;;5.03;;
76176;SDS011;64938;47.696;8.066;2023-06-22T02:02:43;8.90;;;6.10;;
76176;SDS011;64938;47.696;8.066;2023-06-22T02:05:10;12.93;;;5.37;;
76176;SDS011;64938;47.696;8.066;2023-06-22T02:07:56;7.43;;;5.50;;
76176;SDS011;64938;47.696;8.066;2023-06-22T02:10:28;8.70;;;5.73;;
76176;SDS011;64938;47.696;8.066;2023-06-22T02:12:54;9.37;;;5.50;;
76176;SDS011;64938;47.696;8.066;2023-06-22T02:15:22;9.07;;;6.30;;
76176;SDS011;64938;47.696;8.066;2023-06-22T02:17:48;11.13;;;6.20;;
76176;SDS011;64938;47.696;8.066;2023-06-22T02:20:14;8.77;;;6.50;;
76176;SDS011;64938;47.696;8.066;2023-06-22T02:22:40;7.27;;;5.80;;
76176;SDS011;64938;47.696;8.066;2023-06-22T02:25:06;10.83;;;6.30;;
76176;SDS011;64938;47.696;8.066;2023-06-22T02:27:32;12.63;;;6.03;;
76176;SDS011;64938;47.696;8.066;2023-06-22T02:29:57;8.70;;;6.13;;
76176;SDS011;64938;47.696;8.066;2023-06-22T02:32:23;11.17;;;6.17;;
76176;SDS011;64938;47.696;8.066;2023-06-22T02:34:48;7.20;;;6.00;;
76176;SDS011;64938;47.696;8.066;2023-06-22T02:37:14;11.73;;;6.60;;
76176;SDS011;64938;47.696;8.066;2023-06-22T02:39:40;11.30;;;6.20;;
76176;SDS011;64938;47.696;8.066;2023-06-22T02:42:05;8.40;;;6.00;;
76176;SDS011;64938;47.696;8.066;2023-06-22T02:44:31;9.00;;;6.63;;
76176;SDS011;64938;47.696;8.066;2023-06-22T02:46:57;11.07;;;5.77;;
76176;SDS011;64938;47.696;8.066;2023-06-22T02:49:22;12.30;;;7.80;;
76176;SDS011;64938;47.696;8.066;2023-06-22T02:51:48;10.50;;;6.83;;
76176;SDS011;64938;47.696;8.066;2023-06-22T02:54:14;11.30;;;6.47;;
76176;SDS011;64938;47.696;8.066;2023-06-22T02:56:39;9.47;;;6.57;;
76176;SDS011;64938;47.696;8.066;2023-06-22T02:59:06;10.30;;;6.70;;
76176;SDS011;64938;47.696;8.066;2023-06-22T03:01:31;9.00;;;7.37;;
76176;SDS011;64938;47.696;8.066;2023-06-22T03:04:03;9.33;;;7.00;;
76176;SDS011;64938;47.696;8.066;2023-06-22T03:06:29;14.27;;;6.97;;
76176;SDS011;64938;47.696;8.066;2023-06-22T03:08:59;11.37;;;6.77;;
76176;SDS011;64938;47.696;8.066;2023-06-22T03:11:25;11.53;;;6.50;;
76176;SDS011;64938;47.696;8.066;2023-06-22T03:13:51;13.43;;;6.77;;
76176;SDS011;64938;47.696;8.066;2023-06-22T03:16:18;9.20;;;6.90;;
76176;SDS011;64938;47.696;8.066;2023-06-22T03:18:48;9.63;;;7.30;;
76176;SDS011;64938;47.696;8.066;2023-06-22T03:21:13;10.97;;;7.37;;
76176;SDS011;64938;47.696;8.066;2023-06-22T03:23:41;10.40;;;7.00;;
76176;SDS011;64938;47.696;8.066;2023-06-22T03:26:07;12.60;;;7.67;;
76176;SDS011;64938;47.696;8.066;2023-06-22T03:28:34;12.30;;;6.97;;
76176;SDS011;64938;47.696;8.066;2023-06-22T03:30:59;10.00;;;7.10;;
76176;SDS011;64938;47.696;8.066;2023-06-22T03:33:25;9.77;;;7.13;;
76176;SDS011;64938;47.696;8.066;2023-06-22T03:35:50;10.53;;;6.63;;
76176;SDS011;64938;47.696;8.066;2023-06-22T03:38:16;11.40;;;7.83;;
76176;SDS011;64938;47.696;8.066;2023-06-22T03:40:42;11.53;;;7.33;;
76176;SDS011;64938;47.696;8.066;2023-06-22T03:43:08;8.60;;;6.90;;
76176;SDS011;64938;47.696;8.066;2023-06-22T03:45:33;11.10;;;7.57;;
76176;SDS011;64938;47.696;8.066;2023-06-22T03:48:00;8.47;;;7.40;;
76176;SDS011;64938;47.696;8.066;2023-06-22T03:50:26;9.53;;;6.73;;
76176;SDS011;64938;47.696;8.066;2023-06-22T03:52:52;13.60;;;7.27;;
76176;SDS011;64938;47.696;8.066;2023-06-22T03:55:19;11.00;;;6.70;;
76176;SDS011;64938;47.696;8.066;2023-06-22T03:57:45;9.50;;;6.87;;
76176;SDS011;64938;47.696;8.066;2023-06-22T04:00:11;9.43;;;7.27;;
76176;SDS011;64938;47.696;8.066;2023-06-22T04:02:37;12.73;;;6.80;;
76176;SDS011;64938;47.696;8.066;2023-06-22T04:05:02;8.63;;;6.77;;
76176;SDS011;64938;47.696;8.066;2023-06-22T04:07:28;12.30;;;6.87;;
76176;SDS011;64938;47.696;8.066;2023-06-22T04:09:53;7.13;;;6.20;;
76176;SDS011;64938;47.696;8.066;2023-06-22T04:12:19;13.77;;;6.73;;
76176;SDS011;64938;47.696;8.066;2023-06-22T04:14:45;12.47;;;6.57;;
76176;SDS011;64938;47.696;8.066;2023-06-22T04:17:10;11.33;;;6.70;;
76176;SDS011;64938;47.696;8.066;2023-06-22T04:19:39;9.60;;;6.50;;
76176;SDS011;64938;47.696;8.066;2023-06-22T04:22:05;8.30;;;6.50;;
76176;SDS011;64938;47.696;8.066;2023-06-22T04:24:32;10.60;;;6.30;;
76176;SDS011;64938;47.696;8.066;2023-06-22T04:26:58;12.50;;;6.10;;
76176;SDS011;64938;47.696;8.066;2023-06-22T04:29:25;9.10;;;6.30;;
76176;SDS011;64938;47.696;8.066;2023-06-22T04:31:54;10.70;;;6.07;;
76176;SDS011;64938;47.696;8.066;2023-06-22T04:34:21;12.00;;;5.87;;
76176;SDS011;64938;47.696;8.066;2023-06-22T04:36:46;9.80;;;6.37;;
76176;SDS011;64938;47.696;8.066;2023-06-22T04:39:13;6.93;;;5.90;;
76176;SDS011;64938;47.696;8.066;2023-06-22T04:41:40;6.00;;;5.10;;
76176;SDS011;64938;47.696;8.066;2023-06-22T04:46:35;7.97;;;5.60;;
76176;SDS011;64938;47.696;8.066;2023-06-22T04:49:04;8.23;;;5.10;;
76176;SDS011;64938;47.696;8.066;2023-06-22T04:51:42;9.02;;;5.07;;
76176;SDS011;64938;47.696;8.066;2023-06-22T04:54:08;8.23;;;5.72;;
76176;SDS011;64938;47.696;8.066;2023-06-22T04:56:34;12.30;;;5.88;;
76176;SDS011;64938;47.696;8.066;2023-06-22T04:59:00;7.78;;;5.20;;
76176;SDS011;64938;47.696;8.066;2023-06-22T05:01:26;8.82;;;5.90;;
76176;SDS011;64938;47.696;8.066;2023-06-22T05:03:52;8.82;;;5.25;;
76176;SDS011;64938;47.696;8.066;2023-06-22T05:06:23;7.80;;;6.03;;
76176;SDS011;64938;47.696;8.066;2023-06-22T05:08:55;8.05;;;5.63;;
76176;SDS011;64938;47.696;8.066;2023-06-22T05:11:25;7.30;;;5.40;;
76176;SDS011;64938;47.696;8.066;2023-06-22T05:13:51;9.13;;;6.05;;
76176;SDS011;64938;47.696;8.066;2023-06-22T05:16:17;8.50;;;5.40;;
76176;SDS011;64938;47.696;8.066;2023-06-22T05:18:49;9.38;;;5.38;;
76176;SDS011;64938;47.696;8.066;2023-06-22T05:21:21;9.20;;;4.63;;
76176;SDS011;64938;47.696;8.066;2023-06-22T05:23:47;9.13;;;5.55;;
76176;SDS011;64938;47.696;8.066;2023-06-22T05:26:13;7.13;;;4.97;;
76176;SDS011;64938;47.696;8.066;2023-06-22T05:28:39;6.55;;;4.47;;
76176;SDS011;64938;47.696;8.066;2023-06-22T05:31:04;6.47;;;4.88;;
76176;SDS011;64938;47.696;8.066;2023-06-22T05:33:30;10.88;;;4.90;;
76176;SDS011;64938;47.696;8.066;2023-06-22T05:35:56;12.27;;;5.35;;
76176;SDS011;64938;47.696;8.066;2023-06-22T05:38:23;6.82;;;4.53;;
76176;SDS011;64938;47.696;8.066;2023-06-22T05:40:49;8.00;;;4.93;;
76176;SDS011;64938;47.696;8.066;2023-06-22T05:43:14;6.75;;;4.93;;
76176;SDS011;64938;47.696;8.066;2023-06-22T05:45:40;7.75;;;5.68;;
76176;SDS011;64938;47.696;8.066;2023-06-22T05:48:06;7.95;;;4.82;;
76176;SDS011;64938;47.696;8.066;2023-06-22T05:50:34;7.47;;;5.43;;
76176;SDS011;64938;47.696;8.066;2023-06-22T05:53:00;8.18;;;5.05;;
76176;SDS011;64938;47.696;8.066;2023-06-22T05:55:26;6.13;;;4.65;;
76176;SDS011;64938;47.696;8.066;2023-06-22T05:57:52;7.75;;;5.47;;
76176;SDS011;64938;47.696;8.066;2023-06-22T06:00:22;8.15;;;4.78;;
76176;SDS011;64938;47.696;8.066;2023-06-22T06:02:49;11.45;;;5.25;;
76176;SDS011;64938;47.696;8.066;2023-06-22T06:05:15;6.60;;;4.43;;
76176;SDS011;64938;47.696;8.066;2023-06-22T06:07:41;7.70;;;5.15;;
76176;SDS011;64938;47.696;8.066;2023-06-22T06:10:08;12.10;;;5.95;;
76176;SDS011;64938;47.696;8.066;2023-06-22T06:12:34;9.45;;;4.90;;
76176;SDS011;64938;47.696;8.066;2023-06-22T06:15:00;7.15;;;5.05;;
76176;SDS011;64938;47.696;8.066;2023-06-22T06:17:26;8.05;;;5.15;;
76176;SDS011;64938;47.696;8.066;2023-06-22T06:19:51;7.72;;;5.40;;
76176;SDS011;64938;47.696;8.066;2023-06-22T06:22:17;8.48;;;5.50;;
76176;SDS011;64938;47.696;8.066;2023-06-22T06:24:44;7.65;;;5.28;;
76176;SDS011;64938;47.696;8.066;2023-06-22T06:27:10;7.75;;;5.50;;
76176;SDS011;64938;47.696;8.066;2023-06-22T06:29:36;8.45;;;5.10;;
76176;SDS011;64938;47.696;8.066;2023-06-22T06:32:02;9.48;;;5.07;;
76176;SDS011;64938;47.696;8.066;2023-06-22T06:34:47;5.85;;;5.05;;
76176;SDS011;64938;47.696;8.066;2023-06-22T06:37:13;6.40;;;5.35;;
76176;SDS011;64938;47.696;8.066;2023-06-22T06:39:39;7.53;;;5.57;;
76176;SDS011;64938;47.696;8.066;2023-06-22T06:42:04;7.07;;;5.28;;
76176;SDS011;64938;47.696;8.066;2023-06-22T06:44:30;6.10;;;5.50;;
76176;SDS011;64938;47.696;8.066;2023-06-22T06:46:56;6.15;;;4.63;;
76176;SDS011;64938;47.696;8.066;2023-06-22T06:49:22;7.85;;;5.40;;
76176;SDS011;64938;47.696;8.066;2023-06-22T06:51:48;8.18;;;5.20;;
76176;SDS011;64938;47.696;8.066;2023-06-22T06:54:13;5.10;;;4.57;;
76176;SDS011;64938;47.696;8.066;2023-06-22T06:56:39;6.68;;;5.70;;
76176;SDS011;64938;47.696;8.066;2023-06-22T06:59:04;6.85;;;5.20;;
76176;SDS011;64938;47.696;8.066;2023-06-22T07:01:30;7.40;;;5.53;;
76176;SDS011;64938;47.696;8.066;2023-06-22T07:03:59;9.40;;;4.70;;
76176;SDS011;64938;47.696;8.066;2023-06-22T07:06:26;7.63;;;4.88;;
76176;SDS011;64938;47.696;8.066;2023-06-22T07:08:54;6.30;;;4.85;;
76176;SDS011;64938;47.696;8.066;2023-06-22T07:11:20;7.97;;;5.18;;
76176;SDS011;64938;47.696;8.066;2023-06-22T07:13:46;6.70;;;5.15;;
76176;SDS011;64938;47.696;8.066;2023-06-22T07:16:11;7.32;;;5.10;;
76176;SDS011;64938;47.696;8.066;2023-06-22T07:18:39;5.90;;;5.07;;
76176;SDS011;64938;47.696;8.066;2023-06-22T07:21:05;6.55;;;5.30;;
76176;SDS011;64938;47.696;8.066;2023-06-22T07:23:40;7.43;;;5.30;;
76176;SDS011;64938;47.696;8.066;2023-06-22T07:26:08;8.40;;;5.68;;
76176;SDS011;64938;47.696;8.066;2023-06-22T07:28:33;6.38;;;4.82;;
76176;SDS011;64938;47.696;8.066;2023-06-22T07:31:03;7.45;;;5.07;;
76176;SDS011;64938;47.696;8.066;2023-06-22T07:33:31;8.00;;;4.97;;
76176;SDS011;64938;47.696;8.066;2023-06-22T07:35:57;10.20;;;5.45;;
76176;SDS011;64938;47.696;8.066;2023-06-22T07:38:23;6.72;;;4.70;;
76176;SDS011;64938;47.696;8.066;2023-06-22T07:40:49;8.27;;;5.43;;
76176;SDS011;64938;47.696;8.066;2023-06-22T07:43:16;8.00;;;5.43;;
76176;SDS011;64938;47.696;8.066;2023-06-22T07:45:45;7.72;;;5.03;;
76176;SDS011;64938;47.696;8.066;2023-06-22T07:48:17;6.40;;;4.15;;
76176;SDS011;64938;47.696;8.066;2023-06-22T07:50:45;7.43;;;4.63;;
76176;SDS011;64938;47.696;8.066;2023-06-22T07:53:10;11.13;;;5.70;;
76176;SDS011;64938;47.696;8.066;2023-06-22T07:55:36;5.57;;;4.75;;
76176;SDS011;64938;47.696;8.066;2023-06-22T07:58:02;9.88;;;5.00;;
76176;SDS011;64938;47.696;8.066;2023-06-22T08:00:27;7.20;;;5.10;;
76176;SDS011;64938;47.696;8.066;2023-06-22T08:02:53;8.38;;;6.03;;
76176;SDS011;64938;47.696;8.066;2023-06-22T08:05:19;7.53;;;4.90;;
76176;SDS011;64938;47.696;8.066;2023-06-22T08:07:46;7.97;;;5.60;;
76176;SDS011;64938;47.696;8.066;2023-06-22T08:10:12;7.75;;;5.00;;
76176;SDS011;64938;47.696;8.066;2023-06-22T08:12:39;9.43;;;5.28;;
76176;SDS011;64938;47.696;8.066;2023-06-22T08:15:05;9.43;;;5.45;;
76176;SDS011;64938;47.696;8.066;2023-06-22T08:17:32;7.90;;;5.50;;
76176;SDS011;64938;47.696;8.066;2023-06-22T08:20:04;8.05;;;5.32;;
76176;SDS011;64938;47.696;8.066;2023-06-22T08:22:40;7.47;;;5.13;;
76176;SDS011;64938;47.696;8.066;2023-06-22T08:25:07;9.15;;;5.28;;
76176;SDS011;64938;47.696;8.066;2023-06-22T08:27:33;8.65;;;4.82;;
76176;SDS011;64938;47.696;8.066;2023-06-22T08:30:06;9.88;;;5.20;;
76176;SDS011;64938;47.696;8.066;2023-06-22T08:32:32;8.20;;;4.82;;
76176;SDS011;64938;47.696;8.066;2023-06-22T08:34:58;7.28;;;5.00;;
76176;SDS011;64938;47.696;8.066;2023-06-22T08:37:27;6.25;;;4.88;;
76176;SDS011;64938;47.696;8.066;2023-06-22T08:39:59;7.53;;;5.28;;
76176;SDS011;64938;47.696;8.066;2023-06-22T08:42:30;9.40;;;4.70;;
76176;SDS011;64938;47.696;8.066;2023-06-22T08:44:56;7.72;;;4.75;;
76176;SDS011;64938;47.696;8.066;2023-06-22T08:47:22;9.02;;;4.88;;
76176;SDS011;64938;47.696;8.066;2023-06-22T08:49:48;8.63;;;4.45;;
76176;SDS011;64938;47.696;8.066;2023-06-22T08:52:14;8.73;;;4.78;;
76176;SDS011;64938;47.696;8.066;2023-06-22T08:54:41;9.18;;;4.50;;
76176;SDS011;64938;47.696;8.066;2023-06-22T08:57:07;8.35;;;4.45;;
76176;SDS011;64938;47.696;8.066;2023-06-22T08:59:33;6.57;;;4.78;;
76176;SDS011;64938;47.696;8.066;2023-06-22T09:01:59;6.90;;;4.20;;
76176;SDS011;64938;47.696;8.066;2023-06-22T09:04:24;7.53;;;5.35;;
76176;SDS011;64938;47.696;8.066;2023-06-22T09:06:50;9.43;;;5.55;;
76176;SDS011;64938;47.696;8.066;2023-06-22T09:09:17;9.00;;;5.75;;
76176;SDS011;64938;47.696;8.066;2023-06-22T09:11:43;7.70;;;5.30;;
76176;SDS011;64938;47.696;8.066;2023-06-22T09:14:10;7.90;;;5.03;;
76176;SDS011;64938;47.696;8.066;2023-06-22T09:16:36;5.30;;;4.75;;
76176;SDS011;64938;47.696;8.066;2023-06-22T09:19:01;7.03;;;5.57;;
76176;SDS011;64938;47.696;8.066;2023-06-22T09:21:27;9.27;;;5.85;;
76176;SDS011;64938;47.696;8.066;2023-06-22T09:23:53;6.03;;;5.43;;
76176;SDS011;64938;47.696;8.066;2023-06-22T09:26:19;8.10;;;5.63;;
76176;SDS011;64938;47.696;8.066;2023-06-22T09:28:45;8.57;;;5.82;;
76176;SDS011;64938;47.696;8.066;2023-06-22T09:31:10;6.82;;;6.13;;
76176;SDS011;64938;47.696;8.066;2023-06-22T09:33:36;8.05;;;6.18;;
76176;SDS011;64938;47.696;8.066;2023-06-22T09:36:05;6.82;;;6.20;;
76176;SDS011;64938;47.696;8.066;2023-06-22T09:38:34;7.63;;;6.45;;
76176;SDS011;64938;47.696;8.066;2023-06-22T09:41:01;9.10;;;6.57;;
76176;SDS011;64938;47.696;8.066;2023-06-22T09:43:27;9.57;;;7.18;;
76176;SDS011;64938;47.696;8.066;2023-06-22T09:45:52;8.52;;;6.82;;
76176;SDS011;64938;47.696;8.066;2023-06-22T09:48:18;11.77;;;7.07;;
76176;SDS011;64938;47.696;8.066;2023-06-22T09:50:44;10.02;;;6.63;;
76176;SDS011;64938;47.696;8.066;2023-06-22T09:53:09;10.70;;;6.78;;
76176;SDS011;64938;47.696;8.066;2023-06-22T09:55:35;12.48;;;7.15;;
76176;SDS011;64938;47.696;8.066;2023-06-22T09:58:00;9.95;;;6.95;;
76176;SDS011;64938;47.696;8.066;2023-06-22T10:00:26;7.90;;;7.20;;
76176;SDS011;64938;47.696;8.066;2023-06-22T10:02:54;8.90;;;7.18;;
76176;SDS011;64938;47.696;8.066;2023-06-22T10:05:21;11.13;;;8.77;;
76176;SDS011;64938;47.696;8.066;2023-06-22T10:07:47;8.55;;;7.70;;
76176;SDS011;64938;47.696;8.066;2023-06-22T10:10:12;9.02;;;7.90;;
76176;SDS011;64938;47.696;8.066;2023-06-22T10:12:42;9.23;;;8.05;;
76176;SDS011;64938;47.696;8.066;2023-06-22T10:15:11;11.52;;;8.05;;
76176;SDS011;64938;47.696;8.066;2023-06-22T10:17:36;9.23;;;7.97;;
76176;SDS011;64938;47.696;8.066;2023-06-22T10:20:02;12.68;;;7.57;;
76176;SDS011;64938;47.696;8.066;2023-06-22T10:22:41;11.45;;;8.45;;
76176;SDS011;64938;47.696;8.066;2023-06-22T10:25:08;9.60;;;7.93;;
76176;SDS011;64938;47.696;8.066;2023-06-22T10:27:34;13.40;;;8.95;;
76176;SDS011;64938;47.696;8.066;2023-06-22T10:29:59;9.85;;;8.85;;
76176;SDS011;64938;47.696;8.066;2023-06-22T10:32:25;9.80;;;8.30;;
76176;SDS011;64938;47.696;8.066;2023-06-22T10:34:50;11.40;;;7.35;;
76176;SDS011;64938;47.696;8.066;2023-06-22T10:37:16;16.10;;;8.75;;
76176;SDS011;64938;47.696;8.066;2023-06-22T10:39:43;10.60;;;7.07;;
76176;SDS011;64938;47.696;8.066;2023-06-22T10:42:09;12.27;;;7.63;;
76176;SDS011;64938;47.696;8.066;2023-06-22T10:44:34;9.50;;;7.45;;
76176;SDS011;64938;47.696;8.066;2023-06-22T10:47:00;9.82;;;6.63;;
76176;SDS011;64938;47.696;8.066;2023-06-22T10:49:25;9.63;;;7.68;;
76176;SDS011;64938;47.696;8.066;2023-06-22T10:51:51;8.98;;;7.88;;
76176;SDS011;64938;47.696;8.066;2023-06-22T10:54:17;10.43;;;7.60;;
76176;SDS011;64938;47.696;8.066;2023-06-22T10:56:44;10.48;;;8.68;;
76176;SDS011;64938;47.696;8.066;2023-06-22T10:59:10;9.35;;;7.07;;
76176;SDS011;64938;47.696;8.066;2023-06-22T11:01:35;8.20;;;7.40;;
76176;SDS011;64938;47.696;8.066;2023-06-22T11:04:02;8.30;;;6.85;;
76176;SDS011;64938;47.696;8.066;2023-06-22T11:06:27;12.18;;;7.22;;
76176;SDS011;64938;47.696;8.066;2023-06-22T11:08:53;9.40;;;7.45;;
76176;SDS011;64938;47.696;8.066;2023-06-22T11:11:19;7.57;;;6.80;;
76176;SDS011;64938;47.696;8.066;2023-06-22T11:13:45;13.27;;;7.22;;
76176;SDS011;64938;47.696;8.066;2023-06-22T11:16:10;9.48;;;7.28;;
76176;SDS011;64938;47.696;8.066;2023-06-22T11:18:36;9.95;;;7.70;;
76176;SDS011;64938;47.696;8.066;2023-06-22T11:21:02;7.72;;;7.03;;
76176;SDS011;64938;47.696;8.066;2023-06-22T11:23:27;8.50;;;7.20;;
76176;SDS011;64938;47.696;8.066;2023-06-22T11:25:54;9.18;;;8.32;;
76176;SDS011;64938;47.696;8.066;2023-06-22T11:28:19;9.18;;;7.97;;
76176;SDS011;64938;47.696;8.066;2023-06-22T11:30:45;10.93;;;8.80;;
76176;SDS011;64938;47.696;8.066;2023-06-22T11:33:11;11.32;;;8.05;;
76176;SDS011;64938;47.696;8.066;2023-06-22T11:35:37;10.32;;;8.35;;
76176;SDS011;64938;47.696;8.066;2023-06-22T11:38:02;10.70;;;8.30;;
76176;SDS011;64938;47.696;8.066;2023-06-22T11:40:29;11.65;;;8.57;;
76176;SDS011;64938;47.696;8.066;2023-06-22T11:42:55;11.80;;;8.30;;
76176;SDS011;64938;47.696;8.066;2023-06-22T11:45:20;9.35;;;8.32;;
76176;SDS011;64938;47.696;8.066;2023-06-22T11:47:46;7.72;;;7.03;;
76176;SDS011;64938;47.696;8.066;2023-06-22T11:50:12;10.82;;;5.93;;
76176;SDS011;64938;47.696;8.066;2023-06-22T11:52:37;11.10;;;6.13;;
76176;SDS011;64938;47.696;8.066;2023-06-22T11:55:03;10.95;;;5.00;;
76176;SDS011;64938;47.696;8.066;2023-06-22T11:57:32;12.57;;;4.97;;
76176;SDS011;64938;47.696;8.066;2023-06-22T11:59:59;7.68;;;4.80;;
76176;SDS011;64938;47.696;8.066;2023-06-22T12:02:27;9.55;;;4.93;;
76176;SDS011;64938;47.696;8.066;2023-06-22T12:04:53;10.23;;;4.43;;
76176;SDS011;64938;47.696;8.066;2023-06-22T12:07:21;8.75;;;4.68;;
76176;SDS011;64938;47.696;8.066;2023-06-22T12:09:47;11.80;;;4.50;;
76176;SDS011;64938;47.696;8.066;2023-06-22T12:12:12;13.48;;;4.75;;
76176;SDS011;64938;47.696;8.066;2023-06-22T12:14:38;7.68;;;4.32;;
76176;SDS011;64938;47.696;8.066;2023-06-22T12:17:04;9.70;;;4.63;;
76176;SDS011;64938;47.696;8.066;2023-06-22T12:19:29;9.85;;;4.53;;
76176;SDS011;64938;47.696;8.066;2023-06-22T12:21:55;7.50;;;4.32;;
76176;SDS011;64938;47.696;8.066;2023-06-22T12:24:20;6.95;;;4.65;;
76176;SDS011;64938;47.696;8.066;2023-06-22T12:26:46;10.30;;;4.22;;
76176;SDS011;64938;47.696;8.066;2023-06-22T12:29:18;10.52;;;4.82;;
76176;SDS011;64938;47.696;8.066;2023-06-22T12:31:43;10.00;;;4.47;;
76176;SDS011;64938;47.696;8.066;2023-06-22T12:34:09;8.30;;;4.10;;
76176;SDS011;64938;47.696;8.066;2023-06-22T12:36:35;7.85;;;4.00;;
76176;SDS011;64938;47.696;8.066;2023-06-22T12:39:04;9.27;;;4.22;;
76176;SDS011;64938;47.696;8.066;2023-06-22T12:41:29;9.55;;;3.85;;
76176;SDS011;64938;47.696;8.066;2023-06-22T12:43:55;12.90;;;4.55;;
76176;SDS011;64938;47.696;8.066;2023-06-22T12:46:20;12.25;;;4.53;;
76176;SDS011;64938;47.696;8.066;2023-06-22T12:48:47;8.05;;;4.50;;
76176;SDS011;64938;47.696;8.066;2023-06-22T12:51:19;10.07;;;4.30;;
76176;SDS011;64938;47.696;8.066;2023-06-22T12:53:45;7.97;;;4.10;;
76176;SDS011;64938;47.696;8.066;2023-06-22T12:56:11;11.93;;;4.38;;
76176;SDS011;64938;47.696;8.066;2023-06-22T12:58:36;8.55;;;4.25;;
76176;SDS011;64938;47.696;8.066;2023-06-22T13:01:02;10.48;;;3.88;;
76176;SDS011;64938;47.696;8.066;2023-06-22T13:03:28;7.15;;;3.33;;
76176;SDS011;64938;47.696;8.066;2023-06-22T13:05:53;13.63;;;4.78;;
76176;SDS011;64938;47.696;8.066;2023-06-22T13:08:19;13.05;;;5.05;;
76176;SDS011;64938;47.696;8.066;2023-06-22T13:10:45;8.13;;;4.80;;
76176;SDS011;64938;47.696;8.066;2023-06-22T13:13:10;8.52;;;4.75;;
76176;SDS011;64938;47.696;8.066;2023-06-22T13:15:36;7.50;;;4.53;;
76176;SDS011;64938;47.696;8.066;2023-06-22T13:18:02;11.75;;;5.03;;
76176;SDS011;64938;47.696;8.066;2023-06-22T13:20:28;9.15;;;4.88;;
76176;SDS011;64938;47.696;8.066;2023-06-22T13:22:55;7.57;;;5.10;;
76176;SDS011;64938;47.696;8.066;2023-06-22T13:25:22;7.43;;;5.43;;
76176;SDS011;64938;47.696;8.066;2023-06-22T13:27:51;6.13;;;4.65;;
76176;SDS011;64938;47.696;8.066;2023-06-22T13:30:17;8.90;;;5.10;;
76176;SDS011;64938;47.696;8.066;2023-06-22T13:32:43;9.10;;;5.28;;
76176;SDS011;64938;47.696;8.066;2023-06-22T13:35:11;7.80;;;5.20;;
76176;SDS011;64938;47.696;8.066;2023-06-22T13:37:37;10.38;;;5.80;;
76176;SDS011;64938;47.696;8.066;2023-06-22T13:40:12;8.45;;;5.95;;
76176;SDS011;64938;47.696;8.066;2023-06-22T13:42:37;10.45;;;6.13;;
76176;SDS011;64938;47.696;8.066;2023-06-22T13:45:03;15.10;;;6.65;;
76176;SDS011;64938;47.696;8.066;2023-06-22T13:47:29;10.75;;;7.53;;
76176;SDS011;64938;47.696;8.066;2023-06-22T13:49:58;10.57;;;7.43;;
76176;SDS011;64938;47.696;8.066;2023-06-22T13:52:24;12.73;;;7.55;;
76176;SDS011;64938;47.696;8.066;2023-06-22T13:54:51;13.27;;;7.63;;
76176;SDS011;64938;47.696;8.066;2023-06-22T13:57:22;10.38;;;6.97;;
76176;SDS011;64938;47.696;8.066;2023-06-22T13:59:47;11.07;;;7.22;;
76176;SDS011;64938;47.696;8.066;2023-06-22T14:02:16;10.63;;;6.85;;
76176;SDS011;64938;47.696;8.066;2023-06-22T14:04:42;12.68;;;7.80;;
76176;SDS011;64938;47.696;8.066;2023-06-22T14:07:12;9.60;;;7.00;;
76176;SDS011;64938;47.696;8.066;2023-06-22T14:09:38;15.43;;;7.70;;
76176;SDS011;64938;47.696;8.066;2023-06-22T14:12:04;9.95;;;8.30;;
76176;SDS011;64938;47.696;8.066;2023-06-22T14:14:32;13.48;;;8.18;;
76176;SDS011;64938;47.696;8.066;2023-06-22T14:16:58;8.07;;;5.78;;
76176;SDS011;64938;47.696;8.066;2023-06-22T14:19:24;10.13;;;6.97;;
76176;SDS011;64938;47.696;8.066;2023-06-22T14:21:50;10.50;;;7.55;;
76176;SDS011;64938;47.696;8.066;2023-06-22T14:24:16;6.88;;;5.53;;
76176;SDS011;64938;47.696;8.066;2023-06-22T14:26:46;7.18;;;5.03;;
76176;SDS011;64938;47.696;8.066;2023-06-22T14:29:15;9.30;;;6.70;;
76176;SDS011;64938;47.696;8.066;2023-06-22T14:31:44;13.67;;;5.17;;
76176;SDS011;64938;47.696;8.066;2023-06-22T14:34:10;9.27;;;5.13;;
76176;SDS011;64938;47.696;8.066;2023-06-22T14:36:36;9.25;;;5.93;;
76176;SDS011;64938;47.696;8.066;2023-06-22T14:39:06;11.75;;;5.80;;
76176;SDS011;64938;47.696;8.066;2023-06-22T14:41:32;9.20;;;5.80;;
76176;SDS011;64938;47.696;8.066;2023-06-22T14:43:58;9.77;;;6.32;;
76176;SDS011;64938;47.696;8.066;2023-06-22T14:46:24;7.25;;;5.00;;